sensor_id;sensor_type;location;lat;lon;timestamp;P1;durP1;ratioP1;P2;durP2;ratioP2
11771;SDS011;12556;55.748;13.194;2023-04-01T00:01:03;3.33;;;2.77;;
11771;SDS011;12556;55.748;13.194;2023-04-01T00:03:31;3.30;;;3.00;;
11771;SDS011;12556;55.748;13.194;2023-04-01T00:05:58;3.13;;;2.93;;
11771;SDS011;12556;55.748;13.194;2023-04-01T00:08:26;4.30;;;3.33;;
11771;SDS011;12556;55.748;13.194;2023-04-01T00:10:53;3.47;;;3.17;;
11771;SDS011;12556;55.748;13.194;2023-04-01T00:13:23;3.00;;;2.70;;
11771;SDS011;12556;55.748;13.194;2023-04-01T00:15:51;5.03;;;3.43;;
11771;SDS011;12556;55.748;13.194;2023-04-01T00:18:18;3.50;;;3.20;;
11771;SDS011;12556;55.748;13.194;2023-04-01T00:20:46;3.23;;;2.93;;
11771;SDS011;12556;55.748;13.194;2023-04-01T00:23:14;3.43;;;3.10;;
11771;SDS011;12556;55.748;13.194;2023-04-01T00:25:41;3.40;;;3.10;;
11771;SDS011;12556;55.748;13.194;2023-04-01T00:28:08;3.40;;;3.10;;
11771;SDS011;12556;55.748;13.194;2023-04-01T00:30:36;3.70;;;3.40;;
11771;SDS011;12556;55.748;13.194;2023-04-01T00:33:03;3.43;;;3.13;;
11771;SDS011;12556;55.748;13.194;2023-04-01T00:35:31;3.97;;;3.60;;
11771;SDS011;12556;55.748;13.194;2023-04-01T00:37:58;3.50;;;3.20;;
11771;SDS011;12556;55.748;13.194;2023-04-01T00:40:26;2.80;;;2.57;;
11771;SDS011;12556;55.748;13.194;2023-04-01T00:42:55;3.43;;;2.73;;
11771;SDS011;12556;55.748;13.194;2023-04-01T00:45:26;3.17;;;2.43;;
11771;SDS011;12556;55.748;13.194;2023-04-01T00:48:01;3.03;;;2.70;;
11771;SDS011;12556;55.748;13.194;2023-04-01T00:50:32;3.40;;;2.60;;
11771;SDS011;12556;55.748;13.194;2023-04-01T00:53:01;2.97;;;2.53;;
11771;SDS011;12556;55.748;13.194;2023-04-01T00:55:30;3.23;;;2.93;;
11771;SDS011;12556;55.748;13.194;2023-04-01T00:58:00;2.90;;;2.70;;
11771;SDS011;12556;55.748;13.194;2023-04-01T01:00:31;3.37;;;2.90;;
11771;SDS011;12556;55.748;13.194;2023-04-01T01:02:58;3.43;;;2.87;;
11771;SDS011;12556;55.748;13.194;2023-04-01T01:05:29;6.37;;;3.20;;
11771;SDS011;12556;55.748;13.194;2023-04-01T01:08:10;4.93;;;3.40;;
11771;SDS011;12556;55.748;13.194;2023-04-01T01:10:42;4.63;;;3.13;;
11771;SDS011;12556;55.748;13.194;2023-04-01T01:13:16;4.17;;;3.57;;
11771;SDS011;12556;55.748;13.194;2023-04-01T01:15:47;3.70;;;2.93;;
11771;SDS011;12556;55.748;13.194;2023-04-01T01:18:19;5.27;;;3.43;;
11771;SDS011;12556;55.748;13.194;2023-04-01T01:24:02;4.87;;;3.83;;
11771;SDS011;12556;55.748;13.194;2023-04-01T01:26:45;3.63;;;3.33;;
11771;SDS011;12556;55.748;13.194;2023-04-01T01:35:38;4.40;;;3.43;;
11771;SDS011;12556;55.748;13.194;2023-04-01T01:38:11;3.80;;;3.43;;
11771;SDS011;12556;55.748;13.194;2023-04-01T01:40:42;3.50;;;3.20;;
11771;SDS011;12556;55.748;13.194;2023-04-01T01:43:12;5.53;;;3.67;;
11771;SDS011;12556;55.748;13.194;2023-04-01T01:45:43;3.90;;;3.20;;
11771;SDS011;12556;55.748;13.194;2023-04-01T01:48:12;3.67;;;3.33;;
11771;SDS011;12556;55.748;13.194;2023-04-01T01:50:41;3.20;;;2.90;;
11771;SDS011;12556;55.748;13.194;2023-04-01T01:53:11;4.03;;;3.27;;
11771;SDS011;12556;55.748;13.194;2023-04-01T01:55:39;4.57;;;3.30;;
11771;SDS011;12556;55.748;13.194;2023-04-01T01:58:09;4.50;;;3.50;;
11771;SDS011;12556;55.748;13.194;2023-04-01T02:00:40;5.10;;;3.53;;
11771;SDS011;12556;55.748;13.194;2023-04-01T02:03:10;3.67;;;3.37;;
11771;SDS011;12556;55.748;13.194;2023-04-01T02:05:38;4.23;;;3.67;;
11771;SDS011;12556;55.748;13.194;2023-04-01T02:08:09;4.83;;;3.20;;
11771;SDS011;12556;55.748;13.194;2023-04-01T02:10:39;4.90;;;3.60;;
11771;SDS011;12556;55.748;13.194;2023-04-01T02:13:12;3.30;;;3.00;;
11771;SDS011;12556;55.748;13.194;2023-04-01T02:15:44;5.07;;;3.77;;
11771;SDS011;12556;55.748;13.194;2023-04-01T02:18:13;4.57;;;3.60;;
11771;SDS011;12556;55.748;13.194;2023-04-01T02:20:42;4.60;;;3.27;;
11771;SDS011;12556;55.748;13.194;2023-04-01T02:23:11;4.00;;;3.60;;
11771;SDS011;12556;55.748;13.194;2023-04-01T02:25:40;7.63;;;3.87;;
11771;SDS011;12556;55.748;13.194;2023-04-01T02:28:09;6.93;;;4.03;;
11771;SDS011;12556;55.748;13.194;2023-04-01T02:30:38;3.33;;;3.03;;
11771;SDS011;12556;55.748;13.194;2023-04-01T02:33:07;5.63;;;3.83;;
11771;SDS011;12556;55.748;13.194;2023-04-01T02:35:35;6.70;;;3.47;;
11771;SDS011;12556;55.748;13.194;2023-04-01T02:38:03;5.10;;;4.37;;
11771;SDS011;12556;55.748;13.194;2023-04-01T02:40:41;4.47;;;3.83;;
11771;SDS011;12556;55.748;13.194;2023-04-01T02:43:10;5.17;;;4.20;;
11771;SDS011;12556;55.748;13.194;2023-04-01T02:45:37;4.10;;;3.70;;
11771;SDS011;12556;55.748;13.194;2023-04-01T02:48:05;5.50;;;3.97;;
11771;SDS011;12556;55.748;13.194;2023-04-01T02:50:32;4.47;;;4.00;;
11771;SDS011;12556;55.748;13.194;2023-04-01T02:52:59;5.23;;;3.83;;
11771;SDS011;12556;55.748;13.194;2023-04-01T02:55:27;4.77;;;3.73;;
11771;SDS011;12556;55.748;13.194;2023-04-01T02:57:56;5.00;;;3.93;;
11771;SDS011;12556;55.748;13.194;2023-04-01T03:00:23;5.20;;;4.37;;
11771;SDS011;12556;55.748;13.194;2023-04-01T03:02:50;5.53;;;4.67;;
11771;SDS011;12556;55.748;13.194;2023-04-01T03:05:17;7.20;;;4.43;;
11771;SDS011;12556;55.748;13.194;2023-04-01T03:07:44;6.47;;;4.17;;
11771;SDS011;12556;55.748;13.194;2023-04-01T03:10:11;6.27;;;4.17;;
11771;SDS011;12556;55.748;13.194;2023-04-01T03:12:39;6.57;;;4.47;;
11771;SDS011;12556;55.748;13.194;2023-04-01T03:15:08;7.30;;;4.43;;
11771;SDS011;12556;55.748;13.194;2023-04-01T03:17:36;6.93;;;4.77;;
11771;SDS011;12556;55.748;13.194;2023-04-01T03:20:04;4.83;;;4.03;;
11771;SDS011;12556;55.748;13.194;2023-04-01T03:22:33;6.80;;;3.90;;
11771;SDS011;12556;55.748;13.194;2023-04-01T03:25:00;5.27;;;4.40;;
11771;SDS011;12556;55.748;13.194;2023-04-01T03:27:28;5.97;;;4.70;;
11771;SDS011;12556;55.748;13.194;2023-04-01T03:29:54;8.10;;;4.37;;
11771;SDS011;12556;55.748;13.194;2023-04-01T03:32:23;4.90;;;3.90;;
11771;SDS011;12556;55.748;13.194;2023-04-01T03:34:50;6.70;;;4.03;;
11771;SDS011;12556;55.748;13.194;2023-04-01T03:37:17;5.77;;;4.07;;
11771;SDS011;12556;55.748;13.194;2023-04-01T03:39:44;4.53;;;3.73;;
11771;SDS011;12556;55.748;13.194;2023-04-01T03:42:11;6.97;;;3.77;;
11771;SDS011;12556;55.748;13.194;2023-04-01T03:44:38;6.27;;;4.20;;
11771;SDS011;12556;55.748;13.194;2023-04-01T03:47:05;6.23;;;4.00;;
11771;SDS011;12556;55.748;13.194;2023-04-01T03:49:35;4.90;;;3.83;;
11771;SDS011;12556;55.748;13.194;2023-04-01T03:52:02;5.70;;;4.20;;
11771;SDS011;12556;55.748;13.194;2023-04-01T03:54:29;6.13;;;4.30;;
11771;SDS011;12556;55.748;13.194;2023-04-01T03:56:57;5.27;;;3.60;;
11771;SDS011;12556;55.748;13.194;2023-04-01T03:59:24;4.10;;;3.50;;
11771;SDS011;12556;55.748;13.194;2023-04-01T04:01:51;4.40;;;3.53;;
11771;SDS011;12556;55.748;13.194;2023-04-01T04:04:18;5.40;;;4.17;;
11771;SDS011;12556;55.748;13.194;2023-04-01T04:06:46;4.70;;;3.50;;
11771;SDS011;12556;55.748;13.194;2023-04-01T04:09:13;3.97;;;3.50;;
11771;SDS011;12556;55.748;13.194;2023-04-01T04:11:40;3.73;;;3.10;;
11771;SDS011;12556;55.748;13.194;2023-04-01T04:14:06;4.57;;;3.43;;
11771;SDS011;12556;55.748;13.194;2023-04-01T04:16:34;5.17;;;3.87;;
11771;SDS011;12556;55.748;13.194;2023-04-01T04:19:02;4.70;;;3.67;;
11771;SDS011;12556;55.748;13.194;2023-04-01T04:21:30;4.17;;;3.50;;
11771;SDS011;12556;55.748;13.194;2023-04-01T04:23:59;6.87;;;3.93;;
11771;SDS011;12556;55.748;13.194;2023-04-01T04:26:27;4.23;;;3.73;;
11771;SDS011;12556;55.748;13.194;2023-04-01T04:28:54;5.10;;;3.60;;
11771;SDS011;12556;55.748;13.194;2023-04-01T04:31:22;6.47;;;3.97;;
11771;SDS011;12556;55.748;13.194;2023-04-01T04:33:50;5.40;;;3.93;;
11771;SDS011;12556;55.748;13.194;2023-04-01T04:36:17;4.63;;;3.43;;
11771;SDS011;12556;55.748;13.194;2023-04-01T04:38:44;4.30;;;3.50;;
11771;SDS011;12556;55.748;13.194;2023-04-01T04:41:14;3.93;;;3.53;;
11771;SDS011;12556;55.748;13.194;2023-04-01T04:43:48;4.90;;;3.80;;
11771;SDS011;12556;55.748;13.194;2023-04-01T04:46:15;3.57;;;3.23;;
11771;SDS011;12556;55.748;13.194;2023-04-01T04:48:42;4.37;;;3.07;;
11771;SDS011;12556;55.748;13.194;2023-04-01T04:51:12;5.57;;;3.10;;
11771;SDS011;12556;55.748;13.194;2023-04-01T04:53:40;3.50;;;3.20;;
11771;SDS011;12556;55.748;13.194;2023-04-01T04:56:08;4.90;;;3.93;;
11771;SDS011;12556;55.748;13.194;2023-04-01T04:58:36;4.73;;;3.77;;
11771;SDS011;12556;55.748;13.194;2023-04-01T05:01:07;4.60;;;3.20;;
11771;SDS011;12556;55.748;13.194;2023-04-01T05:03:36;6.07;;;3.17;;
11771;SDS011;12556;55.748;13.194;2023-04-01T05:06:03;4.73;;;3.17;;
11771;SDS011;12556;55.748;13.194;2023-04-01T05:08:31;6.38;;;4.03;;
11771;SDS011;12556;55.748;13.194;2023-04-01T05:10:59;8.27;;;4.43;;
11771;SDS011;12556;55.748;13.194;2023-04-01T05:13:27;5.80;;;3.67;;
11771;SDS011;12556;55.748;13.194;2023-04-01T05:15:55;5.30;;;3.50;;
11771;SDS011;12556;55.748;13.194;2023-04-01T05:18:22;4.57;;;3.50;;
11771;SDS011;12556;55.748;13.194;2023-04-01T05:20:50;3.27;;;2.97;;
11771;SDS011;12556;55.748;13.194;2023-04-01T05:23:18;3.90;;;2.90;;
11771;SDS011;12556;55.748;13.194;2023-04-01T05:25:46;3.90;;;2.90;;
11771;SDS011;12556;55.748;13.194;2023-04-01T05:28:13;3.27;;;2.60;;
11771;SDS011;12556;55.748;13.194;2023-04-01T05:30:40;2.53;;;2.30;;
11771;SDS011;12556;55.748;13.194;2023-04-01T05:33:09;3.33;;;2.90;;
11771;SDS011;12556;55.748;13.194;2023-04-01T05:35:36;4.43;;;2.70;;
11771;SDS011;12556;55.748;13.194;2023-04-01T05:38:03;3.03;;;2.67;;
11771;SDS011;12556;55.748;13.194;2023-04-01T05:40:30;3.60;;;3.17;;
11771;SDS011;12556;55.748;13.194;2023-04-01T05:42:58;3.37;;;3.03;;
11771;SDS011;12556;55.748;13.194;2023-04-01T05:45:25;6.93;;;3.20;;
11771;SDS011;12556;55.748;13.194;2023-04-01T05:47:52;3.30;;;2.83;;
11771;SDS011;12556;55.748;13.194;2023-04-01T05:50:20;4.70;;;3.80;;
11771;SDS011;12556;55.748;13.194;2023-04-01T05:52:47;2.60;;;2.37;;
11771;SDS011;12556;55.748;13.194;2023-04-01T05:55:14;3.17;;;1.83;;
11771;SDS011;12556;55.748;13.194;2023-04-01T05:57:41;3.00;;;1.93;;
11771;SDS011;12556;55.748;13.194;2023-04-01T06:00:10;3.97;;;2.00;;
11771;SDS011;12556;55.748;13.194;2023-04-01T06:02:38;2.60;;;1.97;;
11771;SDS011;12556;55.748;13.194;2023-04-01T06:05:11;3.83;;;2.17;;
11771;SDS011;12556;55.748;13.194;2023-04-01T06:07:42;3.37;;;1.77;;
11771;SDS011;12556;55.748;13.194;2023-04-01T06:10:11;2.03;;;1.70;;
11771;SDS011;12556;55.748;13.194;2023-04-01T06:12:42;2.17;;;1.70;;
11771;SDS011;12556;55.748;13.194;2023-04-01T06:15:20;3.00;;;2.00;;
11771;SDS011;12556;55.748;13.194;2023-04-01T06:18:02;4.57;;;1.97;;
11771;SDS011;12556;55.748;13.194;2023-04-01T06:20:50;3.90;;;2.07;;
11771;SDS011;12556;55.748;13.194;2023-04-01T06:23:30;5.73;;;2.67;;
11771;SDS011;12556;55.748;13.194;2023-04-01T06:26:07;3.70;;;2.50;;
11771;SDS011;12556;55.748;13.194;2023-04-01T06:28:53;2.43;;;2.17;;
11771;SDS011;12556;55.748;13.194;2023-04-01T06:31:44;3.30;;;2.00;;
11771;SDS011;12556;55.748;13.194;2023-04-01T06:37:18;2.60;;;2.10;;
11771;SDS011;12556;55.748;13.194;2023-04-01T06:40:05;2.40;;;1.90;;
11771;SDS011;12556;55.748;13.194;2023-04-01T06:42:49;5.27;;;2.47;;
11771;SDS011;12556;55.748;13.194;2023-04-01T06:45:28;2.73;;;2.53;;
11771;SDS011;12556;55.748;13.194;2023-04-01T06:48:16;2.47;;;2.20;;
11771;SDS011;12556;55.748;13.194;2023-04-01T06:50:57;3.70;;;2.00;;
11771;SDS011;12556;55.748;13.194;2023-04-01T06:53:35;1.73;;;1.63;;
11771;SDS011;12556;55.748;13.194;2023-04-01T06:56:12;2.83;;;1.73;;
11771;SDS011;12556;55.748;13.194;2023-04-01T06:58:44;3.40;;;2.40;;
11771;SDS011;12556;55.748;13.194;2023-04-01T07:01:16;3.53;;;1.93;;
11771;SDS011;12556;55.748;13.194;2023-04-01T07:03:49;2.77;;;1.97;;
11771;SDS011;12556;55.748;13.194;2023-04-01T07:06:22;2.57;;;1.83;;
11771;SDS011;12556;55.748;13.194;2023-04-01T07:08:53;2.77;;;1.93;;
11771;SDS011;12556;55.748;13.194;2023-04-01T07:11:27;3.33;;;1.87;;
11771;SDS011;12556;55.748;13.194;2023-04-01T07:13:58;2.47;;;1.60;;
11771;SDS011;12556;55.748;13.194;2023-04-01T07:16:28;2.03;;;1.83;;
11771;SDS011;12556;55.748;13.194;2023-04-01T07:18:59;3.97;;;1.90;;
11771;SDS011;12556;55.748;13.194;2023-04-01T07:21:32;2.13;;;1.50;;
11771;SDS011;12556;55.748;13.194;2023-04-01T07:24:04;1.97;;;1.67;;
11771;SDS011;12556;55.748;13.194;2023-04-01T07:26:36;2.37;;;1.80;;
11771;SDS011;12556;55.748;13.194;2023-04-01T07:29:04;2.43;;;1.70;;
11771;SDS011;12556;55.748;13.194;2023-04-01T07:31:45;1.90;;;1.50;;
11771;SDS011;12556;55.748;13.194;2023-04-01T07:34:25;2.63;;;1.30;;
11771;SDS011;12556;55.748;13.194;2023-04-01T07:36:54;2.93;;;1.57;;
11771;SDS011;12556;55.748;13.194;2023-04-01T07:39:30;2.23;;;1.47;;
11771;SDS011;12556;55.748;13.194;2023-04-01T07:42:07;1.37;;;1.27;;
11771;SDS011;12556;55.748;13.194;2023-04-01T07:44:43;2.40;;;1.30;;
11771;SDS011;12556;55.748;13.194;2023-04-01T07:47:23;3.33;;;1.60;;
11771;SDS011;12556;55.748;13.194;2023-04-01T07:50:02;4.07;;;1.50;;
11771;SDS011;12556;55.748;13.194;2023-04-01T07:52:39;2.30;;;1.50;;
11771;SDS011;12556;55.748;13.194;2023-04-01T07:55:12;1.57;;;1.40;;
11771;SDS011;12556;55.748;13.194;2023-04-01T07:57:46;3.90;;;1.40;;
11771;SDS011;12556;55.748;13.194;2023-04-01T08:00:20;1.90;;;1.17;;
11771;SDS011;12556;55.748;13.194;2023-04-01T08:02:54;3.30;;;1.27;;
11771;SDS011;12556;55.748;13.194;2023-04-01T08:05:35;2.90;;;1.40;;
11771;SDS011;12556;55.748;13.194;2023-04-01T08:08:09;2.00;;;1.20;;
11771;SDS011;12556;55.748;13.194;2023-04-01T08:10:46;1.20;;;1.10;;
11771;SDS011;12556;55.748;13.194;2023-04-01T08:13:21;1.40;;;1.30;;
11771;SDS011;12556;55.748;13.194;2023-04-01T08:15:56;2.03;;;1.40;;
11771;SDS011;12556;55.748;13.194;2023-04-01T08:18:34;2.87;;;1.80;;
11771;SDS011;12556;55.748;13.194;2023-04-01T08:21:07;3.63;;;2.27;;
11771;SDS011;12556;55.748;13.194;2023-04-01T08:23:41;1.47;;;1.30;;
11771;SDS011;12556;55.748;13.194;2023-04-01T08:26:12;1.67;;;1.10;;
11771;SDS011;12556;55.748;13.194;2023-04-01T08:28:46;1.07;;;0.97;;
11771;SDS011;12556;55.748;13.194;2023-04-01T08:31:18;1.20;;;1.10;;
11771;SDS011;12556;55.748;13.194;2023-04-01T08:33:52;1.97;;;1.30;;
11771;SDS011;12556;55.748;13.194;2023-04-01T08:36:21;2.40;;;1.30;;
11771;SDS011;12556;55.748;13.194;2023-04-01T08:38:51;1.83;;;1.20;;
11771;SDS011;12556;55.748;13.194;2023-04-01T08:47:48;1.87;;;1.20;;
11771;SDS011;12556;55.748;13.194;2023-04-01T08:50:23;3.10;;;1.30;;
11771;SDS011;12556;55.748;13.194;2023-04-01T08:53:03;2.20;;;1.13;;
11771;SDS011;12556;55.748;13.194;2023-04-01T08:55:49;3.20;;;0.97;;
11771;SDS011;12556;55.748;13.194;2023-04-01T08:58:30;10.80;;;1.63;;
11771;SDS011;12556;55.748;13.194;2023-04-01T09:01:13;1.50;;;1.40;;
11771;SDS011;12556;55.748;13.194;2023-04-01T09:03:53;2.50;;;1.10;;
11771;SDS011;12556;55.748;13.194;2023-04-01T09:06:33;2.57;;;1.30;;
11771;SDS011;12556;55.748;13.194;2023-04-01T09:09:28;1.63;;;1.10;;
11771;SDS011;12556;55.748;13.194;2023-04-01T09:12:21;2.63;;;1.60;;
11771;SDS011;12556;55.748;13.194;2023-04-01T09:18:13;1.10;;;1.00;;
11771;SDS011;12556;55.748;13.194;2023-04-01T09:21:14;1.67;;;1.00;;
11771;SDS011;12556;55.748;13.194;2023-04-01T09:24:09;1.20;;;1.10;;
11771;SDS011;12556;55.748;13.194;2023-04-01T09:26:58;2.03;;;1.00;;
11771;SDS011;12556;55.748;13.194;2023-04-01T09:29:37;3.53;;;1.20;;
11771;SDS011;12556;55.748;13.194;2023-04-01T09:35:21;1.40;;;0.90;;
11771;SDS011;12556;55.748;13.194;2023-04-01T09:37:54;2.50;;;1.37;;
11771;SDS011;12556;55.748;13.194;2023-04-01T09:40:37;1.80;;;1.20;;
11771;SDS011;12556;55.748;13.194;2023-04-01T09:43:18;1.17;;;1.07;;
11771;SDS011;12556;55.748;13.194;2023-04-01T09:51:59;3.20;;;1.23;;
11771;SDS011;12556;55.748;13.194;2023-04-01T09:54:48;1.63;;;1.07;;
11771;SDS011;12556;55.748;13.194;2023-04-01T10:04:10;1.37;;;1.07;;
11771;SDS011;12556;55.748;13.194;2023-04-01T10:16:26;1.10;;;1.07;;
11771;SDS011;12556;55.748;13.194;2023-04-01T10:19:38;0.93;;;0.80;;
11771;SDS011;12556;55.748;13.194;2023-04-01T10:22:30;0.83;;;0.80;;
11771;SDS011;12556;55.748;13.194;2023-04-01T10:25:48;1.53;;;1.07;;
11771;SDS011;12556;55.748;13.194;2023-04-01T10:28:36;2.40;;;1.10;;
11771;SDS011;12556;55.748;13.194;2023-04-01T10:31:35;1.07;;;0.87;;
11771;SDS011;12556;55.748;13.194;2023-04-01T10:34:25;1.50;;;1.17;;
11771;SDS011;12556;55.748;13.194;2023-04-01T10:37:15;1.57;;;1.40;;
11771;SDS011;12556;55.748;13.194;2023-04-01T10:43:07;2.53;;;1.30;;
11771;SDS011;12556;55.748;13.194;2023-04-01T10:55:12;1.20;;;1.00;;
11771;SDS011;12556;55.748;13.194;2023-04-01T10:58:02;4.57;;;1.47;;
11771;SDS011;12556;55.748;13.194;2023-04-01T11:01:00;1.30;;;1.00;;
11771;SDS011;12556;55.748;13.194;2023-04-01T11:04:01;1.80;;;1.23;;
11771;SDS011;12556;55.748;13.194;2023-04-01T11:07:05;1.80;;;1.00;;
11771;SDS011;12556;55.748;13.194;2023-04-01T11:13:13;2.17;;;1.10;;
11771;SDS011;12556;55.748;13.194;2023-04-01T11:16:06;2.50;;;1.07;;
11771;SDS011;12556;55.748;13.194;2023-04-01T11:31:13;2.20;;;1.00;;
11771;SDS011;12556;55.748;13.194;2023-04-01T11:33:52;2.73;;;1.10;;
11771;SDS011;12556;55.748;13.194;2023-04-01T11:36:29;0.97;;;0.90;;
11771;SDS011;12556;55.748;13.194;2023-04-01T11:39:07;1.60;;;1.00;;
11771;SDS011;12556;55.748;13.194;2023-04-01T11:41:49;1.07;;;0.80;;
11771;SDS011;12556;55.748;13.194;2023-04-01T11:44:21;1.63;;;1.00;;
11771;SDS011;12556;55.748;13.194;2023-04-01T11:49:57;2.13;;;1.30;;
11771;SDS011;12556;55.748;13.194;2023-04-01T11:52:46;4.10;;;1.20;;
11771;SDS011;12556;55.748;13.194;2023-04-01T11:55:28;1.30;;;1.07;;
11771;SDS011;12556;55.748;13.194;2023-04-01T11:58:19;2.47;;;1.27;;
11771;SDS011;12556;55.748;13.194;2023-04-01T12:01:13;1.37;;;1.00;;
11771;SDS011;12556;55.748;13.194;2023-04-01T12:03:59;1.67;;;1.03;;
11771;SDS011;12556;55.748;13.194;2023-04-01T12:06:42;1.00;;;0.90;;
11771;SDS011;12556;55.748;13.194;2023-04-01T12:09:17;1.90;;;0.90;;
11771;SDS011;12556;55.748;13.194;2023-04-01T12:11:52;2.20;;;0.90;;
11771;SDS011;12556;55.748;13.194;2023-04-01T12:14:30;1.00;;;0.90;;
11771;SDS011;12556;55.748;13.194;2023-04-01T12:17:04;1.10;;;1.00;;
11771;SDS011;12556;55.748;13.194;2023-04-01T12:19:41;1.33;;;1.00;;
11771;SDS011;12556;55.748;13.194;2023-04-01T12:22:19;1.83;;;1.10;;
11771;SDS011;12556;55.748;13.194;2023-04-01T12:24:55;0.73;;;0.73;;
11771;SDS011;12556;55.748;13.194;2023-04-01T12:27:43;1.73;;;0.80;;
11771;SDS011;12556;55.748;13.194;2023-04-01T12:30:24;1.20;;;1.10;;
11771;SDS011;12556;55.748;13.194;2023-04-01T12:33:03;1.13;;;1.00;;
11771;SDS011;12556;55.748;13.194;2023-04-01T12:35:49;1.10;;;0.80;;
11771;SDS011;12556;55.748;13.194;2023-04-01T12:38:28;1.53;;;0.97;;
11771;SDS011;12556;55.748;13.194;2023-04-01T12:41:03;1.00;;;0.70;;
11771;SDS011;12556;55.748;13.194;2023-04-01T12:46:38;1.30;;;0.77;;
11771;SDS011;12556;55.748;13.194;2023-04-01T12:49:28;1.53;;;1.00;;
11771;SDS011;12556;55.748;13.194;2023-04-01T12:52:20;1.20;;;1.00;;
11771;SDS011;12556;55.748;13.194;2023-04-01T13:01:05;0.70;;;0.70;;
11771;SDS011;12556;55.748;13.194;2023-04-01T13:03:53;1.17;;;1.00;;
11771;SDS011;12556;55.748;13.194;2023-04-01T13:06:35;2.00;;;0.80;;
11771;SDS011;12556;55.748;13.194;2023-04-01T13:09:13;2.87;;;0.77;;
11771;SDS011;12556;55.748;13.194;2023-04-01T13:11:55;0.90;;;0.70;;
11771;SDS011;12556;55.748;13.194;2023-04-01T13:14:53;1.27;;;1.10;;
11771;SDS011;12556;55.748;13.194;2023-04-01T13:17:50;1.67;;;0.83;;
11771;SDS011;12556;55.748;13.194;2023-04-01T13:20:26;0.97;;;0.60;;
11771;SDS011;12556;55.748;13.194;2023-04-01T13:23:06;0.83;;;0.80;;
11771;SDS011;12556;55.748;13.194;2023-04-01T13:25:42;1.07;;;0.83;;
11771;SDS011;12556;55.748;13.194;2023-04-01T13:28:16;2.40;;;1.10;;
11771;SDS011;12556;55.748;13.194;2023-04-01T13:30:48;1.70;;;1.13;;
11771;SDS011;12556;55.748;13.194;2023-04-01T13:33:24;2.07;;;0.90;;
11771;SDS011;12556;55.748;13.194;2023-04-01T13:36:00;1.47;;;0.97;;
11771;SDS011;12556;55.748;13.194;2023-04-01T13:38:56;1.70;;;1.10;;
11771;SDS011;12556;55.748;13.194;2023-04-01T13:41:35;1.80;;;0.80;;
11771;SDS011;12556;55.748;13.194;2023-04-01T13:44:13;1.47;;;1.00;;
11771;SDS011;12556;55.748;13.194;2023-04-01T13:46:51;0.93;;;0.90;;
11771;SDS011;12556;55.748;13.194;2023-04-01T13:49:36;0.97;;;0.97;;
11771;SDS011;12556;55.748;13.194;2023-04-01T13:52:20;2.30;;;0.93;;
11771;SDS011;12556;55.748;13.194;2023-04-01T14:01:06;1.20;;;1.10;;
11771;SDS011;12556;55.748;13.194;2023-04-01T14:03:49;1.77;;;1.00;;
11771;SDS011;12556;55.748;13.194;2023-04-01T14:06:45;1.47;;;0.70;;
11771;SDS011;12556;55.748;13.194;2023-04-01T14:09:29;1.50;;;0.73;;
11771;SDS011;12556;55.748;13.194;2023-04-01T14:12:11;1.00;;;0.90;;
11771;SDS011;12556;55.748;13.194;2023-04-01T14:14:51;1.77;;;1.00;;
11771;SDS011;12556;55.748;13.194;2023-04-01T14:17:31;1.83;;;1.00;;
11771;SDS011;12556;55.748;13.194;2023-04-01T14:20:18;2.03;;;1.17;;
11771;SDS011;12556;55.748;13.194;2023-04-01T14:22:56;1.03;;;0.80;;
11771;SDS011;12556;55.748;13.194;2023-04-01T14:25:46;1.97;;;1.00;;
11771;SDS011;12556;55.748;13.194;2023-04-01T14:28:28;0.87;;;0.80;;
11771;SDS011;12556;55.748;13.194;2023-04-01T14:31:15;0.90;;;0.80;;
11771;SDS011;12556;55.748;13.194;2023-04-01T14:33:57;1.80;;;1.17;;
11771;SDS011;12556;55.748;13.194;2023-04-01T14:36:47;1.20;;;1.10;;
11771;SDS011;12556;55.748;13.194;2023-04-01T14:42:52;0.80;;;0.80;;
11771;SDS011;12556;55.748;13.194;2023-04-01T14:45:42;0.83;;;0.83;;
11771;SDS011;12556;55.748;13.194;2023-04-01T14:48:23;1.33;;;0.93;;
11771;SDS011;12556;55.748;13.194;2023-04-01T14:50:53;2.00;;;1.13;;
11771;SDS011;12556;55.748;13.194;2023-04-01T14:53:26;1.47;;;1.00;;
11771;SDS011;12556;55.748;13.194;2023-04-01T14:55:55;1.33;;;1.20;;
11771;SDS011;12556;55.748;13.194;2023-04-01T14:58:24;2.53;;;1.10;;
11771;SDS011;12556;55.748;13.194;2023-04-01T15:00:59;1.30;;;1.20;;
11771;SDS011;12556;55.748;13.194;2023-04-01T15:03:38;2.10;;;1.10;;
11771;SDS011;12556;55.748;13.194;2023-04-01T15:06:27;1.70;;;1.47;;
11771;SDS011;12556;55.748;13.194;2023-04-01T15:09:06;2.93;;;1.17;;
11771;SDS011;12556;55.748;13.194;2023-04-01T15:11:43;1.77;;;1.23;;
11771;SDS011;12556;55.748;13.194;2023-04-01T15:14:32;0.93;;;0.87;;
11771;SDS011;12556;55.748;13.194;2023-04-01T15:17:20;1.90;;;1.10;;
11771;SDS011;12556;55.748;13.194;2023-04-01T15:23:13;2.43;;;1.10;;
11771;SDS011;12556;55.748;13.194;2023-04-01T15:25:51;1.57;;;1.00;;
11771;SDS011;12556;55.748;13.194;2023-04-01T15:28:36;1.20;;;1.13;;
11771;SDS011;12556;55.748;13.194;2023-04-01T15:31:09;1.60;;;1.13;;
11771;SDS011;12556;55.748;13.194;2023-04-01T15:33:44;2.30;;;1.07;;
11771;SDS011;12556;55.748;13.194;2023-04-01T15:36:32;2.73;;;1.10;;
11771;SDS011;12556;55.748;13.194;2023-04-01T15:39:13;2.17;;;1.10;;
11771;SDS011;12556;55.748;13.194;2023-04-01T15:41:47;1.70;;;1.07;;
11771;SDS011;12556;55.748;13.194;2023-04-01T15:44:37;2.33;;;1.20;;
11771;SDS011;12556;55.748;13.194;2023-04-01T15:47:35;1.60;;;1.17;;
11771;SDS011;12556;55.748;13.194;2023-04-01T15:50:28;2.17;;;1.20;;
11771;SDS011;12556;55.748;13.194;2023-04-01T15:53:25;2.13;;;1.20;;
11771;SDS011;12556;55.748;13.194;2023-04-01T15:56:26;2.10;;;1.10;;
11771;SDS011;12556;55.748;13.194;2023-04-01T15:59:07;4.23;;;3.50;;
11771;SDS011;12556;55.748;13.194;2023-04-01T16:01:46;2.33;;;1.30;;
11771;SDS011;12556;55.748;13.194;2023-04-01T16:04:26;1.53;;;1.10;;
11771;SDS011;12556;55.748;13.194;2023-04-01T16:07:10;1.63;;;1.03;;
11771;SDS011;12556;55.748;13.194;2023-04-01T16:09:51;1.47;;;1.13;;
11771;SDS011;12556;55.748;13.194;2023-04-01T16:12:36;1.40;;;1.10;;
11771;SDS011;12556;55.748;13.194;2023-04-01T16:15:19;3.57;;;1.20;;
11771;SDS011;12556;55.748;13.194;2023-04-01T16:17:59;1.73;;;1.40;;
11771;SDS011;12556;55.748;13.194;2023-04-01T16:20:51;2.13;;;1.60;;
11771;SDS011;12556;55.748;13.194;2023-04-01T16:23:24;1.47;;;1.30;;
11771;SDS011;12556;55.748;13.194;2023-04-01T16:25:59;2.00;;;1.17;;
11771;SDS011;12556;55.748;13.194;2023-04-01T16:28:32;1.57;;;1.47;;
11771;SDS011;12556;55.748;13.194;2023-04-01T16:31:04;2.37;;;1.40;;
11771;SDS011;12556;55.748;13.194;2023-04-01T16:33:36;4.30;;;1.40;;
11771;SDS011;12556;55.748;13.194;2023-04-01T16:36:13;1.10;;;1.00;;
11771;SDS011;12556;55.748;13.194;2023-04-01T16:38:52;1.70;;;1.20;;
11771;SDS011;12556;55.748;13.194;2023-04-01T16:41:35;1.60;;;1.30;;
11771;SDS011;12556;55.748;13.194;2023-04-01T16:44:10;1.70;;;1.07;;
11771;SDS011;12556;55.748;13.194;2023-04-01T16:46:45;1.43;;;1.10;;
11771;SDS011;12556;55.748;13.194;2023-04-01T16:49:17;0.90;;;0.90;;
11771;SDS011;12556;55.748;13.194;2023-04-01T16:51:52;1.63;;;1.13;;
11771;SDS011;12556;55.748;13.194;2023-04-01T16:54:28;1.87;;;1.50;;
11771;SDS011;12556;55.748;13.194;2023-04-01T16:57:03;2.10;;;1.17;;
11771;SDS011;12556;55.748;13.194;2023-04-01T16:59:45;1.67;;;1.23;;
11771;SDS011;12556;55.748;13.194;2023-04-01T17:02:20;1.33;;;1.23;;
11771;SDS011;12556;55.748;13.194;2023-04-01T17:04:51;1.07;;;0.90;;